Latest Weather Observations for Swan Island

IDT60801

Issued at 3:31 am EDT Wednesday 19 February 2020 (issued every 10 minutes, with the page automatically refreshed every 10 minutes)

About weather observations | Map of weather stations | Latest weather observations for TAS | Other Formats
Station Details ID: 092123 Name: SWAN ISLAND Lat: -40.73 Lon: 148.12 Height: 15.0 m
Data from the previous 72 hours. | See also: Recent months at Swan Island
Date/Time
EDT
Temp
°C
App
Temp
°C
Dew
Point
°C
Rel
Hum
%
Delta-T
°C
Wind Press
QNH
hPa
Press
MSL
hPa
Rain since
9am
mm
Dir  Spd
km/h
Gust
km/h
Spd
kts
Gust
kts
19/03:30am 12.2 8.7 12.2 100 0.0 SSW 22 35 12 19 1001.8 1001.8 69.2
19/03:00am 12.5 9.1 12.5 100 0.0 SSW 22 39 12 21 1001.8 1001.8 67.4
19/02:30am 13.1 9.5 12.9 99 0.1 SSW 24 35 13 19 1001.7 1001.7 64.8
19/02:00am 13.3 8.0 13.0 98 0.2 S 33 48 18 26 1001.6 1001.6 64.8
19/01:30am 13.9 8.5 13.9 100 0.0 S 35 56 19 30 1001.5 1001.5 64.4
19/01:00am 13.4 6.3 13.4 100 0.0 SSE 43 61 23 33 1000.8 1000.8 62.8
19/12:30am 13.1 3.4 13.1 100 0.0 SSE 56 82 30 44 1000.0 1000.0 62.6
19/12:22am 13.2 2.6 13.2 100 0.0 SSE 61 83 33 45 998.9 998.9 62.6
19/12:20am 13.2 3.4 13.2 100 0.0 SSE 57 83 31 45 998.7 998.7 62.6
19/12:14am 13.1 4.6 13.1 100 0.0 S 50 72 27 39 999.3 999.3 62.6
19/12:12am 12.8 4.2 12.8 100 0.0 S 50 72 27 39 999.5 999.5 62.4
19/12:00am 12.9 1.5 12.9 100 0.0 SSE 65 85 35 46 999.1 999.1 62.0
 
Date/Time
EDT
Temp
°C
App
Temp
°C
Dew
Point
°C
Rel
Hum
%
Delta-T
°C
Wind Press
QNH
hPa
Press
MSL
hPa
Rain since
9am
mm
Dir  Spd
km/h
Gust
km/h
Spd
kts
Gust
kts
18/11:45pm 12.4 1.2 12.4 100 0.0 S 63 83 34 45 998.6 998.6 61.0
18/11:44pm 12.5 1.3 12.5 100 0.0 S 63 82 34 44 998.9 998.9 60.8
18/11:38pm 12.7 2.9 12.7 100 0.0 SSE 56 74 30 40 1001.0 1001.0 60.0
18/11:30pm 13.0 3.7 13.0 100 0.0 SSE 54 70 29 38 1002.5 1002.5 58.8
18/11:12pm 13.0 5.8 13.0 100 0.0 S 43 61 23 33 1003.0 1003.0 56.6
18/11:00pm 13.0 5.6 13.0 100 0.0 S 44 61 24 33 1003.4 1003.4 54.2
18/10:40pm 13.0 7.3 13.0 100 0.0 S 35 54 19 29 1003.7 1003.7 49.8
18/10:30pm 13.0 6.9 13.0 100 0.0 S 37 54 20 29 1004.0 1004.0 48.4
18/10:25pm 12.9 7.5 12.9 100 0.0 S 33 54 18 29 1004.3 1004.3 47.6
18/10:00pm 13.3 8.6 13.3 100 0.0 S 30 48 16 26 1005.0 1005.0 42.4
18/09:50pm 13.6 8.7 13.6 100 0.0 S 32 50 17 27 1005.1 1005.1 39.6
18/09:30pm 13.4 9.9 13.4 100 0.0 S 24 41 13 22 1005.5 1005.5 34.6
18/09:00pm 13.6 10.6 13.6 100 0.0 SW 22 33 12 18 1005.5 1005.5 26.8
18/08:30pm 13.6 10.2 13.6 100 0.0 SSW 24 35 13 19 1005.2 1005.2 20.4
18/08:00pm 13.3 9.8 13.3 100 0.0 SW 24 37 13 20 1004.3 1004.3 16.6
18/07:30pm 14.0 11.5 14.0 100 0.0 SSW 20 32 11 17 1005.7 1005.7 10.4
18/07:25pm 14.5 11.4 14.5 100 0.0 S 24 37 13 20 1005.5 1005.5 9.8
18/07:05pm 14.8 9.1 14.3 97 0.3 SSE 37 57 20 31 1003.9 1003.9 8.2
18/07:00pm 15.0 8.6 14.4 96 0.3 SSE 41 57 22 31 1003.8 1003.8 8.2
18/06:30pm 15.4 9.0 14.4 94 0.6 SE 41 57 22 31 1003.9 1003.9 7.6
18/06:00pm 15.2 8.3 14.1 93 0.6 SE 43 56 23 30 1003.4 1003.4 7.2
18/05:30pm 15.1 9.5 14.5 96 0.3 SE 37 50 20 27 1004.2 1004.2 7.0
18/05:00pm 15.0 9.6 14.0 94 0.6 ESE 35 43 19 23 1004.8 1004.8 6.0
18/04:40pm 14.9 8.6 13.6 92 0.7 SE 39 48 21 26 1004.7 1004.7 3.6
18/04:30pm 15.1 9.8 13.0 87 1.2 SE 33 48 18 26 1005.4 1005.4 0.6
18/04:00pm 16.0 9.0 12.6 80 1.9 SE 41 50 22 27 1004.7 1004.7 0.0
18/03:30pm 16.6 10.3 12.2 75 2.4 SE 37 46 20 25 1005.4 1005.4 0.0
18/03:00pm 16.9 10.5 12.0 73 2.7 SE 37 44 20 24 1005.7 1005.7 0.0
18/02:30pm 17.2 11.0 11.5 69 3.1 ESE 35 46 19 25 1006.2 1006.2 0.0
18/02:00pm 17.2 10.4 10.8 66 3.4 ESE 37 46 20 25 1006.6 1006.6 0.0
18/01:30pm 17.2 9.9 10.3 64 3.7 ESE 39 48 21 26 1006.6 1006.6 0.0
18/01:00pm 17.1 11.0 10.5 65 3.5 ESE 33 39 18 21 1007.9 1007.9 0.0
18/12:30pm 16.8 11.2 10.2 65 3.5 ESE 30 37 16 20 1009.0 1009.0 0.0
18/12:00pm 16.5 11.8 10.6 68 3.1 ESE 26 32 14 17 1009.7 1009.7 0.0
18/11:30am 16.8 11.7 10.6 67 3.3 ESE 28 32 15 17 1009.9 1009.9 0.0
18/11:00am 17.3 11.9 10.9 66 3.4 ESE 30 37 16 20 1009.6 1009.6 0.0
18/10:30am 16.8 10.9 10.4 66 3.4 ESE 32 39 17 21 1009.9 1009.9 0.0
18/10:00am 17.0 11.8 10.4 65 3.5 E 28 35 15 19 1010.1 1010.1 0.0
18/09:30am 16.3 10.7 10.2 67 3.2 E 30 37 16 20 1009.9 1009.9 0.0
18/09:00am 16.4 10.8 10.0 66 3.4 E 30 37 16 20 1009.6 1009.6 0.0
18/08:30am 17.1 11.6 10.7 66 3.4 E 30 37 16 20 1009.5 1009.5 0.0
18/08:00am 15.9 10.7 10.2 69 3.0 ESE 28 33 15 18 1009.8 1009.8 0.0
18/07:30am 16.1 10.9 10.2 68 3.1 ESE 28 32 15 17 1009.7 1009.7 0.0
18/07:00am 15.8 11.5 10.6 71 2.8 ESE 24 30 13 16 1009.8 1009.8 0.0
18/06:30am 15.3 10.8 9.9 70 2.8 ESE 24 28 13 15 1009.8 1009.8 0.0
18/06:00am 15.3 11.1 9.9 70 2.8 ESE 22 28 12 15 1009.9 1009.9 0.0
18/05:30am 15.2 11.3 9.6 69 2.9 ESE 20 26 11 14 1010.3 1010.3 0.0
18/05:00am 15.0 11.2 9.1 68 3.0 ESE 19 24 10 13 1010.6 1010.6 0.0
18/04:30am 15.0 11.0 9.1 68 3.0 ESE 20 24 11 13 1010.7 1010.7 0.0
18/04:00am 14.7 11.2 8.9 68 3.0 ESE 17 20 9 11 1011.4 1011.3 0.0
18/03:30am 14.7 11.2 8.6 67 3.1 ESE 17 20 9 11 1011.7 1011.6 0.0
18/03:00am 14.8 11.7 9.0 68 3.0 ESE 15 19 8 10 1012.2 1012.1 0.0
18/02:30am 14.8 11.7 8.7 67 3.1 ESE 15 19 8 10 1012.4 1012.3 0.0
18/02:00am 14.8 11.6 8.3 65 3.3 ESE 15 20 8 11 1012.8 1012.7 0.0
18/01:30am 15.3 11.2 8.8 65 3.3 ENE 20 24 11 13 1013.3 1013.2 0.0
18/01:00am 15.4 11.0 8.9 65 3.3 ENE 22 26 12 14 1013.4 1013.3 0.0
18/12:30am 15.6 11.7 9.5 67 3.2 ENE 20 24 11 13 1013.7 1013.6 0.0
18/12:00am 15.6 11.2 8.8 64 3.5 ENE 22 26 12 14 1013.8 1013.7 0.0
 
Date/Time
EDT
Temp
°C
App
Temp
°C
Dew
Point
°C
Rel
Hum
%
Delta-T
°C
Wind Press
QNH
hPa
Press
MSL
hPa
Rain since
9am
mm
Dir  Spd
km/h
Gust
km/h
Spd
kts
Gust
kts
17/11:30pm 15.8 11.5 9.5 66 3.3 ENE 22 26 12 14 1014.1 1014.0 0.0
17/11:00pm 15.9 12.1 9.8 67 3.2 ENE 20 26 11 14 1014.3 1014.2 0.0
17/10:30pm 15.9 12.0 9.6 66 3.3 ENE 20 28 11 15 1014.5 1014.4 0.0
17/10:00pm 15.8 11.9 9.5 66 3.3 ENE 20 24 11 13 1014.8 1014.7 0.0
17/09:30pm 15.8 12.0 9.7 67 3.2 ENE 20 26 11 14 1014.8 1014.7 0.0
17/09:00pm 15.7 11.9 9.8 68 3.1 E 20 28 11 15 1014.4 1014.3 0.0
17/08:30pm 15.6 11.8 9.9 69 3.0 E 20 24 11 13 1014.4 1014.3 0.0
17/08:00pm 15.7 11.5 9.6 67 3.2 E 22 28 12 15 1014.2 1014.1 0.0
17/07:30pm 15.9 11.5 9.1 64 3.5 E 22 30 12 16 1014.1 1014.0 0.0
17/07:00pm 16.2 12.3 9.4 64 3.5 E 20 26 11 14 1014.1 1014.0 0.0
17/06:30pm 16.5 12.8 9.4 63 3.7 E 19 22 10 12 1014.3 1014.2 0.0
17/06:00pm 17.1 13.7 9.3 60 4.1 E 17 22 9 12 1014.4 1014.3 0.0
17/05:30pm 17.3 14.0 9.5 60 4.1 E 17 22 9 12 1014.5 1014.4 0.0
17/05:00pm 17.8 14.3 8.9 56 4.6 E 17 20 9 11 1014.6 1014.5 0.0
17/04:30pm 18.1 14.6 8.9 55 4.8 E 17 22 9 12 1014.8 1014.7 0.0
17/04:00pm 19.0 15.5 8.9 52 5.3 E 17 24 9 13 1014.9 1014.8 0.0
17/03:30pm 19.5 16.1 9.1 51 5.5 ESE 17 20 9 11 1015.1 1015.0 0.0
17/03:00pm 19.3 16.2 8.9 51 5.4 ESE 15 19 8 10 1015.6 1015.5 0.0
17/02:30pm 20.1 17.0 8.8 48 5.9 ESE 15 20 8 11 1015.8 1015.7 0.0
17/02:00pm 20.2 16.9 9.5 50 5.7 ESE 17 20 9 11 1016.0 1015.9 0.0
17/01:30pm 20.3 16.9 9.2 49 5.9 E 17 20 9 11 1016.2 1016.1 0.0
17/01:00pm 18.8 15.4 9.3 54 5.0 ESE 17 20 9 11 1016.7 1016.6 0.0
17/12:30pm 19.6 16.0 8.3 48 5.9 ESE 17 22 9 12 1017.0 1016.9 0.0
17/12:00pm 19.4 15.6 7.5 46 6.1 E 17 19 9 10 1017.6 1017.5 0.0
17/11:30am 19.0 14.6 7.4 47 5.9 E 20 26 11 14 1017.7 1017.6 0.0
17/11:00am 18.9 14.6 7.7 48 5.7 ESE 20 28 11 15 1017.8 1017.7 0.0
17/10:30am 17.0 11.9 7.6 54 4.7 ESE 24 30 13 16 1017.8 1017.7 0.0
17/10:00am 16.8 12.5 7.7 55 4.6 SE 20 28 11 15 1017.9 1017.8 0.0
17/09:30am 15.3 11.7 8.5 64 3.4 S 17 24 9 13 1018.1 1018.0 0.0
17/09:00am 14.9 11.1 9.1 68 3.0 S 19 24 10 13 1018.4 1018.3 0.0
17/08:30am 14.2 10.1 8.6 69 2.8 SSE 20 28 11 15 1018.4 1018.3 0.0
17/08:00am 13.9 9.4 8.5 70 2.7 SSE 22 30 12 16 1018.1 1018.0 0.0
17/07:30am 13.6 9.1 8.4 71 2.6 SSE 22 30 12 16 1017.9 1017.8 0.0
17/07:00am 13.4 8.9 8.5 72 2.4 SSE 22 30 12 16 1017.8 1017.7 0.0
17/06:30am 13.2 7.8 8.1 71 2.5 S 26 32 14 17 1017.7 1017.6 0.0
17/06:00am 13.4 8.8 8.3 71 2.5 S 22 28 12 15 1017.7 1017.6 0.0
17/05:30am 13.5 8.6 8.6 72 2.5 SSE 24 33 13 18 1017.7 1017.6 0.0
17/05:00am 13.5 8.6 8.4 71 2.5 SSE 24 33 13 18 1017.8 1017.7 0.0
17/04:30am 13.6 9.0 8.2 70 2.7 SSE 22 30 12 16 1018.0 1017.9 0.0
17/04:00am 13.6 9.4 8.2 70 2.7 S 20 26 11 14 1018.2 1018.1 0.0
17/03:30am 13.4 8.7 7.8 69 2.8 S 22 28 12 15 1018.3 1018.2 0.0
17/03:00am 13.7 9.0 7.9 68 2.9 S 22 28 12 15 1018.6 1018.5 0.0
17/02:30am 13.9 10.3 8.5 70 2.7 S 17 22 9 12 1018.9 1018.8 0.0
17/02:00am 14.6 10.7 9.6 72 2.6 SE 20 30 11 16 1019.1 1019.0 0.0
17/01:30am 14.3 10.5 9.1 71 2.6 SSE 19 28 10 15 1019.4 1019.3 0.0
17/01:00am 14.1 9.2 8.3 68 2.9 SSE 24 30 13 16 1019.6 1019.5 0.0
17/12:30am 14.0 9.4 8.2 68 2.9 SSE 22 32 12 17 1019.7 1019.6 0.0
17/12:00am 14.2 8.9 8.4 68 2.9 SSE 26 33 14 18 1020.0 1019.9 0.0
 
Date/Time
EDT
Temp
°C
App
Temp
°C
Dew
Point
°C
Rel
Hum
%
Delta-T
°C
Wind Press
QNH
hPa
Press
MSL
hPa
Rain since
9am
mm
Dir  Spd
km/h
Gust
km/h
Spd
kts
Gust
kts
16/11:30pm 14.3 9.0 8.3 67 3.0 SSE 26 33 14 18 1020.3 1020.2 0.0
16/11:00pm 14.6 8.5 8.3 66 3.2 SSE 30 41 16 22 1020.2 1020.1 0.0
16/10:30pm 14.4 7.9 8.1 66 3.1 SSE 32 39 17 21 1020.4 1020.3 0.0
16/10:00pm 14.4 7.7 7.5 63 3.4 SSE 32 43 17 23 1020.7 1020.6 0.0
16/09:30pm 14.5 7.6 7.3 62 3.5 SSE 33 46 18 25 1020.8 1020.7 0.0
16/09:00pm 14.9 8.1 7.5 61 3.6 SE 33 44 18 24 1020.7 1020.6 0.0
16/08:30pm 14.7 8.3 8.6 67 3.1 SSE 32 41 17 22 1020.4 1020.3 0.0
16/08:00pm 14.9 7.9 8.4 65 3.3 SSE 35 46 19 25 1020.3 1020.2 0.0
16/07:30pm 15.0 7.6 8.5 65 3.3 SE 37 46 20 25 1019.9 1019.8 0.0
16/07:00pm 15.5 7.8 8.5 63 3.5 SE 39 50 21 27 1019.8 1019.7 0.0
16/06:30pm 15.6 7.4 8.4 62 3.6 SE 41 54 22 29 1019.8 1019.7 0.0
16/06:00pm 16.4 8.7 10.0 66 3.4 SE 41 54 22 29 1019.8 1019.7 0.0
16/05:30pm 16.3 7.9 9.0 62 3.8 SE 43 54 23 29 1019.7 1019.6 0.0
16/05:00pm 16.3 7.8 9.3 63 3.6 SE 44 57 24 31 1019.6 1019.5 0.0
16/04:30pm 16.5 8.3 9.7 64 3.6 SE 43 54 23 29 1019.6 1019.5 0.0
16/04:00pm 16.8 8.5 9.2 61 3.9 SE 43 52 23 28 1019.8 1019.7 0.0
16/03:30pm 16.8 8.0 8.2 57 4.4 SE 44 57 24 31 1019.6 1019.5 0.0
16/03:00pm 17.0 8.8 9.7 62 3.8 SE 43 56 23 30 1019.9 1019.8 0.0
16/02:30pm 16.4 7.7 9.8 65 3.5 SE 46 57 25 31 1020.0 1019.9 0.0
16/02:00pm 16.7 8.3 9.1 61 3.9 SE 43 54 23 29 1019.9 1019.8 0.0
16/01:30pm 16.9 8.0 9.1 60 4.0 SE 46 57 25 31 1019.9 1019.8 0.0
16/01:00pm 17.1 8.3 9.5 61 4.0 SE 46 61 25 33 1019.8 1019.7 0.0
16/12:30pm 17.0 8.8 10.4 65 3.5 SE 44 56 24 30 1019.7 1019.6 0.0
16/12:00pm 16.6 8.1 9.1 61 3.9 SE 44 57 24 31 1019.9 1019.8 0.0
16/11:31am 16.1 8.3 9.8 66 3.3 SSE 41 61 22 33 1020.1 1020.0 0.0
16/11:30am 16.0 8.6 9.7 66 3.3 SSE 39 56 21 30 1020.1 1020.0 0.0
16/11:00am 16.0 7.4 9.0 63 3.6 SE 44 57 24 31 1020.2 1020.1 0.0
16/10:30am 16.6 8.4 9.8 64 3.6 SE 43 56 23 30 1020.2 1020.1 0.0
16/10:00am 16.1 8.7 10.0 67 3.2 SSE 39 54 21 29 1020.0 1019.9 0.0
16/09:30am 15.5 7.4 8.5 63 3.5 SSE 41 59 22 32 1019.6 1019.5 0.0
16/09:27am 15.5 7.4 8.7 64 3.5 SE 41 59 22 32 1019.7 1019.6 0.0
16/09:00am 15.5 7.5 9.0 65 3.3 SSE 41 54 22 29 1019.4 1019.3 0.2
16/08:41am 15.3 7.8 9.4 68 3.0 SSE 39 57 21 31 1019.3 1019.2 0.2
16/08:30am 15.6 8.1 9.3 66 3.2 SE 39 57 21 31 1019.1 1019.0 0.2
16/08:01am 14.9 8.6 9.1 68 3.0 SSE 32 50 17 27 1018.8 1018.7 0.2
16/08:00am 14.8 8.5 9.0 68 2.9 SSE 32 48 17 26 1018.8 1018.7 0.2
16/07:30am 14.4 8.1 9.0 70 2.7 SSE 32 39 17 21 1018.5 1018.4 0.2
16/07:00am 14.7 8.9 9.5 71 2.7 SSE 30 41 16 22 1018.0 1017.9 0.2
16/06:48am 14.5 8.0 9.1 70 2.8 SSE 33 54 18 29 1018.0 1017.9 0.2
16/06:30am 14.7 9.0 9.9 73 2.5 SSE 30 39 16 21 1017.6 1017.5 0.2
16/06:00am 14.5 8.0 9.1 70 2.7 SSE 33 48 18 26 1017.1 1017.0 0.2
16/05:30am 14.7 7.6 9.7 72 2.6 SSE 37 48 20 26 1016.6 1016.5 0.2
16/05:13am 14.6 7.5 9.6 72 2.6 SSE 37 56 20 30 1016.5 1016.4 0.2
16/05:00am 14.8 7.3 9.6 71 2.7 SSE 39 50 21 27 1016.4 1016.3 0.2
16/04:30am 15.0 7.9 9.6 70 2.8 SSE 37 52 20 28 1016.3 1016.2 0.2
16/04:00am 15.3 8.0 10.3 72 2.6 SSE 39 50 21 27 1015.9 1015.8 0.2

Other formats

Comma delimited format used in spreadsheet applications
http://www.bom.gov.au/fwo/IDT60801/IDT60801.95985.axf

JavaScript Object Notation format (JSON) in row-major order
http://www.bom.gov.au/fwo/IDT60801/IDT60801.95985.json

Data quality

Most of these data are generated automatically and are frequently updated. Quality checks on data are not normally performed. It is possible for incorrect values to appear. Refer to information at About Latest Weather Observations and please check the disclaimer before using these data.